sensor_id;sensor_type;location;lat;lon;timestamp;P1;durP1;ratioP1;P2;durP2;ratioP2
4023;SDS011;2026;51.002;13.668;2023-04-24T00:05:00;9.60;;;7.90;;
4023;SDS011;2026;51.002;13.668;2023-04-24T00:10:04;11.00;;;9.00;;
4023;SDS011;2026;51.002;13.668;2023-04-24T00:15:10;13.30;;;9.60;;
4023;SDS011;2026;51.002;13.668;2023-04-24T00:20:13;12.87;;;8.67;;
4023;SDS011;2026;51.002;13.668;2023-04-24T00:25:17;12.87;;;9.60;;
4023;SDS011;2026;51.002;13.668;2023-04-24T00:30:21;9.77;;;8.03;;
4023;SDS011;2026;51.002;13.668;2023-04-24T00:35:24;11.30;;;9.07;;
4023;SDS011;2026;51.002;13.668;2023-04-24T00:40:27;11.47;;;8.57;;
4023;SDS011;2026;51.002;13.668;2023-04-24T00:45:32;10.10;;;8.40;;
4023;SDS011;2026;51.002;13.668;2023-04-24T00:50:35;12.63;;;7.70;;
4023;SDS011;2026;51.002;13.668;2023-04-24T00:55:38;10.37;;;7.70;;
4023;SDS011;2026;51.002;13.668;2023-04-24T01:00:43;10.20;;;8.00;;
4023;SDS011;2026;51.002;13.668;2023-04-24T01:05:47;10.37;;;8.40;;
4023;SDS011;2026;51.002;13.668;2023-04-24T01:10:52;9.80;;;7.80;;
4023;SDS011;2026;51.002;13.668;2023-04-24T01:15:56;9.53;;;8.53;;
4023;SDS011;2026;51.002;13.668;2023-04-24T01:21:02;13.33;;;9.50;;
4023;SDS011;2026;51.002;13.668;2023-04-24T01:26:08;10.37;;;8.57;;
4023;SDS011;2026;51.002;13.668;2023-04-24T01:31:11;12.30;;;8.93;;
4023;SDS011;2026;51.002;13.668;2023-04-24T01:36:14;7.90;;;6.87;;
4023;SDS011;2026;51.002;13.668;2023-04-24T01:41:20;11.60;;;9.40;;
4023;SDS011;2026;51.002;13.668;2023-04-24T01:46:23;10.90;;;9.00;;
4023;SDS011;2026;51.002;13.668;2023-04-24T01:51:26;11.13;;;9.03;;
4023;SDS011;2026;51.002;13.668;2023-04-24T01:56:32;10.97;;;8.07;;
4023;SDS011;2026;51.002;13.668;2023-04-24T02:01:36;10.50;;;7.77;;
4023;SDS011;2026;51.002;13.668;2023-04-24T02:06:40;11.60;;;8.10;;
4023;SDS011;2026;51.002;13.668;2023-04-24T02:11:45;12.60;;;8.90;;
4023;SDS011;2026;51.002;13.668;2023-04-24T02:16:48;11.97;;;8.40;;
4023;SDS011;2026;51.002;13.668;2023-04-24T02:21:51;12.23;;;8.30;;
4023;SDS011;2026;51.002;13.668;2023-04-24T02:26:55;13.80;;;8.93;;
4023;SDS011;2026;51.002;13.668;2023-04-24T02:31:59;10.63;;;8.43;;
4023;SDS011;2026;51.002;13.668;2023-04-24T02:37:02;13.97;;;8.47;;
4023;SDS011;2026;51.002;13.668;2023-04-24T02:42:06;11.17;;;7.90;;
4023;SDS011;2026;51.002;13.668;2023-04-24T02:47:09;13.07;;;8.30;;
4023;SDS011;2026;51.002;13.668;2023-04-24T02:52:12;10.27;;;8.10;;
4023;SDS011;2026;51.002;13.668;2023-04-24T02:57:17;8.20;;;6.30;;
4023;SDS011;2026;51.002;13.668;2023-04-24T03:02:20;4.87;;;3.60;;
4023;SDS011;2026;51.002;13.668;2023-04-24T03:07:23;5.90;;;3.20;;
4023;SDS011;2026;51.002;13.668;2023-04-24T03:12:28;4.60;;;2.80;;
4023;SDS011;2026;51.002;13.668;2023-04-24T03:17:31;4.03;;;3.33;;
4023;SDS011;2026;51.002;13.668;2023-04-24T03:22:34;5.17;;;4.00;;
4023;SDS011;2026;51.002;13.668;2023-04-24T03:27:41;3.23;;;2.70;;
4023;SDS011;2026;51.002;13.668;2023-04-24T03:32:56;5.60;;;1.93;;
4023;SDS011;2026;51.002;13.668;2023-04-24T03:38:03;2.13;;;1.60;;
4023;SDS011;2026;51.002;13.668;2023-04-24T03:43:20;2.73;;;2.00;;
4023;SDS011;2026;51.002;13.668;2023-04-24T03:48:24;3.77;;;1.93;;
4023;SDS011;2026;51.002;13.668;2023-04-24T03:53:27;2.80;;;1.73;;
4023;SDS011;2026;51.002;13.668;2023-04-24T03:58:32;1.73;;;1.40;;
4023;SDS011;2026;51.002;13.668;2023-04-24T04:03:35;2.30;;;1.30;;
4023;SDS011;2026;51.002;13.668;2023-04-24T04:08:39;4.03;;;2.43;;
4023;SDS011;2026;51.002;13.668;2023-04-24T04:13:44;3.30;;;1.93;;
4023;SDS011;2026;51.002;13.668;2023-04-24T04:18:51;3.83;;;1.80;;
4023;SDS011;2026;51.002;13.668;2023-04-24T04:23:54;2.40;;;1.83;;
4023;SDS011;2026;51.002;13.668;2023-04-24T04:29:08;2.30;;;1.30;;
4023;SDS011;2026;51.002;13.668;2023-04-24T04:34:16;3.57;;;1.70;;
4023;SDS011;2026;51.002;13.668;2023-04-24T04:39:20;2.20;;;1.47;;
4023;SDS011;2026;51.002;13.668;2023-04-24T04:44:32;2.10;;;1.60;;
4023;SDS011;2026;51.002;13.668;2023-04-24T04:49:38;2.63;;;1.40;;
4023;SDS011;2026;51.002;13.668;2023-04-24T04:54:50;1.77;;;1.50;;
4023;SDS011;2026;51.002;13.668;2023-04-24T04:59:54;1.63;;;1.50;;
4023;SDS011;2026;51.002;13.668;2023-04-24T05:05:11;1.83;;;1.60;;
4023;SDS011;2026;51.002;13.668;2023-04-24T05:10:15;4.23;;;1.80;;
4023;SDS011;2026;51.002;13.668;2023-04-24T05:15:20;3.30;;;1.63;;
4023;SDS011;2026;51.002;13.668;2023-04-24T05:20:23;1.60;;;1.50;;
4023;SDS011;2026;51.002;13.668;2023-04-24T05:25:28;2.53;;;1.60;;
4023;SDS011;2026;51.002;13.668;2023-04-24T05:30:41;2.10;;;1.53;;
4023;SDS011;2026;51.002;13.668;2023-04-24T05:35:46;1.47;;;1.37;;
4023;SDS011;2026;51.002;13.668;2023-04-24T05:40:49;3.17;;;1.77;;
4023;SDS011;2026;51.002;13.668;2023-04-24T05:45:53;3.00;;;1.53;;
4023;SDS011;2026;51.002;13.668;2023-04-24T05:50:57;1.90;;;1.67;;
4023;SDS011;2026;51.002;13.668;2023-04-24T05:55:59;2.30;;;1.87;;
4023;SDS011;2026;51.002;13.668;2023-04-24T06:01:05;3.60;;;1.80;;
4023;SDS011;2026;51.002;13.668;2023-04-24T06:06:08;3.30;;;1.60;;
4023;SDS011;2026;51.002;13.668;2023-04-24T06:11:11;2.37;;;1.70;;
4023;SDS011;2026;51.002;13.668;2023-04-24T06:16:16;1.70;;;1.40;;
4023;SDS011;2026;51.002;13.668;2023-04-24T06:21:26;2.07;;;1.40;;
4023;SDS011;2026;51.002;13.668;2023-04-24T06:26:29;5.73;;;1.70;;
4023;SDS011;2026;51.002;13.668;2023-04-24T06:31:35;3.00;;;1.53;;
4023;SDS011;2026;51.002;13.668;2023-04-24T06:36:38;1.60;;;1.50;;
4023;SDS011;2026;51.002;13.668;2023-04-24T06:41:41;2.43;;;1.20;;
4023;SDS011;2026;51.002;13.668;2023-04-24T06:46:54;3.40;;;1.50;;
4023;SDS011;2026;51.002;13.668;2023-04-24T06:51:57;1.73;;;1.40;;
4023;SDS011;2026;51.002;13.668;2023-04-24T06:57:00;2.33;;;1.30;;
4023;SDS011;2026;51.002;13.668;2023-04-24T07:02:05;2.30;;;1.23;;
4023;SDS011;2026;51.002;13.668;2023-04-24T07:07:08;2.90;;;1.70;;
4023;SDS011;2026;51.002;13.668;2023-04-24T07:12:14;1.63;;;1.20;;
4023;SDS011;2026;51.002;13.668;2023-04-24T07:17:19;2.97;;;1.70;;
4023;SDS011;2026;51.002;13.668;2023-04-24T07:22:22;1.87;;;1.23;;
4023;SDS011;2026;51.002;13.668;2023-04-24T07:27:26;1.80;;;1.10;;
4023;SDS011;2026;51.002;13.668;2023-04-24T07:32:30;3.10;;;1.50;;
4023;SDS011;2026;51.002;13.668;2023-04-24T07:37:33;1.20;;;1.10;;
4023;SDS011;2026;51.002;13.668;2023-04-24T07:42:36;1.77;;;1.20;;
4023;SDS011;2026;51.002;13.668;2023-04-24T07:47:41;1.47;;;1.20;;
4023;SDS011;2026;51.002;13.668;2023-04-24T07:52:46;0.90;;;0.90;;
4023;SDS011;2026;51.002;13.668;2023-04-24T07:57:49;2.40;;;1.40;;
4023;SDS011;2026;51.002;13.668;2023-04-24T08:02:53;1.90;;;1.20;;
4023;SDS011;2026;51.002;13.668;2023-04-24T08:07:56;3.03;;;1.20;;
4023;SDS011;2026;51.002;13.668;2023-04-24T08:12:59;3.00;;;1.20;;
4023;SDS011;2026;51.002;13.668;2023-04-24T08:18:04;2.97;;;1.10;;
4023;SDS011;2026;51.002;13.668;2023-04-24T08:23:07;1.10;;;0.90;;
4023;SDS011;2026;51.002;13.668;2023-04-24T08:28:10;2.07;;;1.53;;
4023;SDS011;2026;51.002;13.668;2023-04-24T08:33:18;1.93;;;1.10;;
4023;SDS011;2026;51.002;13.668;2023-04-24T08:38:22;2.10;;;1.00;;
4023;SDS011;2026;51.002;13.668;2023-04-24T08:43:26;1.33;;;0.90;;
4023;SDS011;2026;51.002;13.668;2023-04-24T08:48:31;3.27;;;1.13;;
4023;SDS011;2026;51.002;13.668;2023-04-24T08:53:34;2.13;;;1.10;;
4023;SDS011;2026;51.002;13.668;2023-04-24T08:58:37;1.97;;;1.17;;
4023;SDS011;2026;51.002;13.668;2023-04-24T09:03:42;1.87;;;1.10;;
4023;SDS011;2026;51.002;13.668;2023-04-24T09:08:46;2.20;;;1.30;;
4023;SDS011;2026;51.002;13.668;2023-04-24T09:13:53;1.47;;;1.20;;
4023;SDS011;2026;51.002;13.668;2023-04-24T09:18:57;1.40;;;1.17;;
4023;SDS011;2026;51.002;13.668;2023-04-24T09:24:01;1.20;;;1.10;;
4023;SDS011;2026;51.002;13.668;2023-04-24T09:29:04;1.57;;;1.20;;
4023;SDS011;2026;51.002;13.668;2023-04-24T09:34:09;2.37;;;1.20;;
4023;SDS011;2026;51.002;13.668;2023-04-24T09:39:12;1.27;;;1.13;;
4023;SDS011;2026;51.002;13.668;2023-04-24T09:44:17;1.37;;;1.07;;
4023;SDS011;2026;51.002;13.668;2023-04-24T09:49:24;2.90;;;1.20;;
4023;SDS011;2026;51.002;13.668;2023-04-24T09:54:28;5.40;;;1.30;;
4023;SDS011;2026;51.002;13.668;2023-04-24T09:59:31;1.97;;;1.10;;
4023;SDS011;2026;51.002;13.668;2023-04-24T10:04:38;1.40;;;1.20;;
4023;SDS011;2026;51.002;13.668;2023-04-24T10:09:41;1.83;;;1.10;;
4023;SDS011;2026;51.002;13.668;2023-04-24T10:14:45;2.30;;;0.93;;
4023;SDS011;2026;51.002;13.668;2023-04-24T10:19:50;1.73;;;1.10;;
4023;SDS011;2026;51.002;13.668;2023-04-24T10:24:54;1.33;;;1.10;;
4023;SDS011;2026;51.002;13.668;2023-04-24T10:29:58;1.83;;;1.10;;
4023;SDS011;2026;51.002;13.668;2023-04-24T10:35:04;1.37;;;1.27;;
4023;SDS011;2026;51.002;13.668;2023-04-24T10:40:09;3.30;;;1.60;;
4023;SDS011;2026;51.002;13.668;2023-04-24T10:45:17;6.63;;;1.50;;
4023;SDS011;2026;51.002;13.668;2023-04-24T10:50:24;2.60;;;1.17;;
4023;SDS011;2026;51.002;13.668;2023-04-24T10:55:42;1.30;;;1.20;;
4023;SDS011;2026;51.002;13.668;2023-04-24T11:00:55;1.43;;;1.23;;
4023;SDS011;2026;51.002;13.668;2023-04-24T11:06:01;2.03;;;1.57;;
4023;SDS011;2026;51.002;13.668;2023-04-24T11:11:09;1.33;;;1.23;;
4023;SDS011;2026;51.002;13.668;2023-04-24T11:16:20;2.10;;;1.10;;
4023;SDS011;2026;51.002;13.668;2023-04-24T11:21:28;1.53;;;1.37;;
4023;SDS011;2026;51.002;13.668;2023-04-24T11:26:33;2.30;;;0.93;;
4023;SDS011;2026;51.002;13.668;2023-04-24T11:31:41;2.17;;;1.10;;
4023;SDS011;2026;51.002;13.668;2023-04-24T11:36:52;2.73;;;1.50;;
4023;SDS011;2026;51.002;13.668;2023-04-24T11:42:01;2.10;;;1.10;;
4023;SDS011;2026;51.002;13.668;2023-04-24T11:47:05;1.20;;;1.10;;
4023;SDS011;2026;51.002;13.668;2023-04-24T11:52:09;1.40;;;1.20;;
4023;SDS011;2026;51.002;13.668;2023-04-24T11:57:13;3.60;;;1.90;;
4023;SDS011;2026;51.002;13.668;2023-04-24T12:02:22;1.43;;;1.20;;
4023;SDS011;2026;51.002;13.668;2023-04-24T12:07:27;1.57;;;1.47;;
4023;SDS011;2026;51.002;13.668;2023-04-24T12:12:30;1.80;;;1.30;;
4023;SDS011;2026;51.002;13.668;2023-04-24T12:17:34;2.10;;;1.60;;
4023;SDS011;2026;51.002;13.668;2023-04-24T12:22:46;3.00;;;1.53;;
4023;SDS011;2026;51.002;13.668;2023-04-24T12:27:52;1.33;;;1.23;;
4023;SDS011;2026;51.002;13.668;2023-04-24T12:32:56;2.60;;;1.30;;
4023;SDS011;2026;51.002;13.668;2023-04-24T12:38:06;3.80;;;1.30;;
4023;SDS011;2026;51.002;13.668;2023-04-24T12:43:13;3.53;;;1.50;;
4023;SDS011;2026;51.002;13.668;2023-04-24T12:48:17;1.50;;;1.40;;
4023;SDS011;2026;51.002;13.668;2023-04-24T12:53:23;3.53;;;1.50;;
4023;SDS011;2026;51.002;13.668;2023-04-24T12:58:28;2.23;;;1.30;;
4023;SDS011;2026;51.002;13.668;2023-04-24T13:03:31;3.30;;;1.53;;
4023;SDS011;2026;51.002;13.668;2023-04-24T13:08:35;3.40;;;1.80;;
4023;SDS011;2026;51.002;13.668;2023-04-24T13:13:38;1.77;;;1.50;;
4023;SDS011;2026;51.002;13.668;2023-04-24T13:18:41;3.70;;;1.53;;
4023;SDS011;2026;51.002;13.668;2023-04-24T13:23:46;5.33;;;1.40;;
4023;SDS011;2026;51.002;13.668;2023-04-24T13:28:49;2.83;;;1.67;;
4023;SDS011;2026;51.002;13.668;2023-04-24T13:33:51;6.00;;;2.00;;
4023;SDS011;2026;51.002;13.668;2023-04-24T13:38:56;5.70;;;2.33;;
4023;SDS011;2026;51.002;13.668;2023-04-24T13:44:00;1.93;;;1.73;;
4023;SDS011;2026;51.002;13.668;2023-04-24T13:49:04;2.00;;;1.73;;
4023;SDS011;2026;51.002;13.668;2023-04-24T13:54:08;2.30;;;1.53;;
4023;SDS011;2026;51.002;13.668;2023-04-24T13:59:12;2.60;;;1.60;;
4023;SDS011;2026;51.002;13.668;2023-04-24T14:04:15;2.70;;;1.73;;
4023;SDS011;2026;51.002;13.668;2023-04-24T14:09:20;1.83;;;1.73;;
4023;SDS011;2026;51.002;13.668;2023-04-24T14:14:23;2.40;;;1.60;;
4023;SDS011;2026;51.002;13.668;2023-04-24T14:19:26;1.63;;;1.53;;
4023;SDS011;2026;51.002;13.668;2023-04-24T14:24:30;3.23;;;2.07;;
4023;SDS011;2026;51.002;13.668;2023-04-24T14:29:33;1.90;;;1.70;;
4023;SDS011;2026;51.002;13.668;2023-04-24T14:34:36;1.60;;;1.50;;
4023;SDS011;2026;51.002;13.668;2023-04-24T14:39:40;3.63;;;2.30;;
4023;SDS011;2026;51.002;13.668;2023-04-24T14:44:48;1.73;;;1.57;;
4023;SDS011;2026;51.002;13.668;2023-04-24T14:49:51;4.30;;;1.90;;
4023;SDS011;2026;51.002;13.668;2023-04-24T14:54:55;2.27;;;1.80;;
4023;SDS011;2026;51.002;13.668;2023-04-24T14:59:58;2.57;;;1.93;;
4023;SDS011;2026;51.002;13.668;2023-04-24T15:05:01;2.53;;;1.70;;
4023;SDS011;2026;51.002;13.668;2023-04-24T15:10:07;2.77;;;1.90;;
4023;SDS011;2026;51.002;13.668;2023-04-24T15:15:11;4.80;;;1.90;;
4023;SDS011;2026;51.002;13.668;2023-04-24T15:20:14;3.90;;;1.57;;
4023;SDS011;2026;51.002;13.668;2023-04-24T15:25:18;2.87;;;2.20;;
4023;SDS011;2026;51.002;13.668;2023-04-24T15:30:21;4.17;;;2.37;;
4023;SDS011;2026;51.002;13.668;2023-04-24T15:35:24;2.70;;;2.27;;
4023;SDS011;2026;51.002;13.668;2023-04-24T15:40:28;2.60;;;2.10;;
4023;SDS011;2026;51.002;13.668;2023-04-24T15:45:32;3.20;;;2.50;;
4023;SDS011;2026;51.002;13.668;2023-04-24T15:50:35;4.93;;;3.13;;
4023;SDS011;2026;51.002;13.668;2023-04-24T15:55:39;3.67;;;2.23;;
4023;SDS011;2026;51.002;13.668;2023-04-24T16:00:42;2.40;;;2.00;;
4023;SDS011;2026;51.002;13.668;2023-04-24T16:05:45;1.93;;;1.83;;
4023;SDS011;2026;51.002;13.668;2023-04-24T16:10:50;2.63;;;1.80;;
4023;SDS011;2026;51.002;13.668;2023-04-24T16:15:53;4.50;;;2.37;;
4023;SDS011;2026;51.002;13.668;2023-04-24T16:20:57;2.80;;;2.13;;
4023;SDS011;2026;51.002;13.668;2023-04-24T16:26:01;3.67;;;2.03;;
4023;SDS011;2026;51.002;13.668;2023-04-24T16:31:04;2.40;;;2.20;;
4023;SDS011;2026;51.002;13.668;2023-04-24T16:36:07;4.20;;;2.07;;
4023;SDS011;2026;51.002;13.668;2023-04-24T16:41:12;2.40;;;1.70;;
4023;SDS011;2026;51.002;13.668;2023-04-24T16:46:14;1.70;;;1.60;;
4023;SDS011;2026;51.002;13.668;2023-04-24T16:51:17;6.80;;;1.70;;
4023;SDS011;2026;51.002;13.668;2023-04-24T16:56:22;3.10;;;2.30;;
4023;SDS011;2026;51.002;13.668;2023-04-24T17:01:26;6.00;;;2.43;;
4023;SDS011;2026;51.002;13.668;2023-04-24T17:06:29;2.63;;;2.00;;
4023;SDS011;2026;51.002;13.668;2023-04-24T17:11:34;2.80;;;2.10;;
4023;SDS011;2026;51.002;13.668;2023-04-24T17:16:37;2.50;;;2.07;;
4023;SDS011;2026;51.002;13.668;2023-04-24T17:21:40;1.90;;;1.60;;
4023;SDS011;2026;51.002;13.668;2023-04-24T17:26:45;2.57;;;1.90;;
4023;SDS011;2026;51.002;13.668;2023-04-24T17:31:48;3.87;;;1.90;;
4023;SDS011;2026;51.002;13.668;2023-04-24T17:36:52;2.53;;;1.70;;
4023;SDS011;2026;51.002;13.668;2023-04-24T17:41:57;1.63;;;1.53;;
4023;SDS011;2026;51.002;13.668;2023-04-24T17:47:00;2.13;;;1.60;;
4023;SDS011;2026;51.002;13.668;2023-04-24T17:52:04;1.30;;;1.20;;
4023;SDS011;2026;51.002;13.668;2023-04-24T17:57:08;3.40;;;1.17;;
4023;SDS011;2026;51.002;13.668;2023-04-24T18:02:12;1.10;;;1.00;;
4023;SDS011;2026;51.002;13.668;2023-04-24T18:07:15;1.47;;;1.20;;
4023;SDS011;2026;51.002;13.668;2023-04-24T18:12:19;1.73;;;1.20;;
4023;SDS011;2026;51.002;13.668;2023-04-24T18:17:22;1.50;;;1.30;;
4023;SDS011;2026;51.002;13.668;2023-04-24T18:22:26;1.77;;;1.47;;
4023;SDS011;2026;51.002;13.668;2023-04-24T18:27:30;1.57;;;1.47;;
4023;SDS011;2026;51.002;13.668;2023-04-24T18:32:33;2.00;;;1.30;;
4023;SDS011;2026;51.002;13.668;2023-04-24T18:37:36;1.70;;;1.40;;
4023;SDS011;2026;51.002;13.668;2023-04-24T18:42:42;2.67;;;1.60;;
4023;SDS011;2026;51.002;13.668;2023-04-24T18:47:45;1.70;;;1.40;;
4023;SDS011;2026;51.002;13.668;2023-04-24T18:52:49;2.00;;;1.77;;
4023;SDS011;2026;51.002;13.668;2023-04-24T18:57:53;5.00;;;2.43;;
4023;SDS011;2026;51.002;13.668;2023-04-24T19:02:56;2.37;;;1.70;;
4023;SDS011;2026;51.002;13.668;2023-04-24T19:07:59;3.00;;;1.63;;
4023;SDS011;2026;51.002;13.668;2023-04-24T19:13:04;9.50;;;3.63;;
4023;SDS011;2026;51.002;13.668;2023-04-24T19:18:07;1.87;;;1.77;;
4023;SDS011;2026;51.002;13.668;2023-04-24T19:23:10;2.60;;;1.50;;
4023;SDS011;2026;51.002;13.668;2023-04-24T19:28:14;1.37;;;1.27;;
4023;SDS011;2026;51.002;13.668;2023-04-24T19:33:17;1.67;;;1.57;;
4023;SDS011;2026;51.002;13.668;2023-04-24T19:38:20;4.90;;;1.80;;
4023;SDS011;2026;51.002;13.668;2023-04-24T19:43:25;2.00;;;1.33;;
4023;SDS011;2026;51.002;13.668;2023-04-24T19:48:28;2.10;;;1.40;;
4023;SDS011;2026;51.002;13.668;2023-04-24T19:53:32;1.97;;;1.87;;
4023;SDS011;2026;51.002;13.668;2023-04-24T19:58:37;3.80;;;1.87;;
4023;SDS011;2026;51.002;13.668;2023-04-24T20:03:40;2.17;;;1.70;;
4023;SDS011;2026;51.002;13.668;2023-04-24T20:08:43;2.03;;;1.83;;
4023;SDS011;2026;51.002;13.668;2023-04-24T20:13:47;2.07;;;1.60;;
4023;SDS011;2026;51.002;13.668;2023-04-24T20:18:50;3.40;;;1.80;;
4023;SDS011;2026;51.002;13.668;2023-04-24T20:23:53;3.73;;;1.97;;
4023;SDS011;2026;51.002;13.668;2023-04-24T20:28:57;2.80;;;2.33;;
4023;SDS011;2026;51.002;13.668;2023-04-24T20:34:00;9.53;;;5.30;;
4023;SDS011;2026;51.002;13.668;2023-04-24T20:39:04;6.90;;;4.73;;
4023;SDS011;2026;51.002;13.668;2023-04-24T20:44:09;7.60;;;4.20;;
4023;SDS011;2026;51.002;13.668;2023-04-24T20:49:12;3.20;;;2.53;;
4023;SDS011;2026;51.002;13.668;2023-04-24T20:54:15;2.67;;;2.47;;
4023;SDS011;2026;51.002;13.668;2023-04-24T20:59:20;2.77;;;2.47;;
4023;SDS011;2026;51.002;13.668;2023-04-24T21:04:23;4.37;;;2.90;;
4023;SDS011;2026;51.002;13.668;2023-04-24T21:09:26;3.60;;;2.90;;
4023;SDS011;2026;51.002;13.668;2023-04-24T21:14:31;4.50;;;2.43;;
4023;SDS011;2026;51.002;13.668;2023-04-24T21:19:34;3.83;;;2.43;;
4023;SDS011;2026;51.002;13.668;2023-04-24T21:24:36;3.47;;;2.63;;
4023;SDS011;2026;51.002;13.668;2023-04-24T21:29:41;2.80;;;2.37;;
4023;SDS011;2026;51.002;13.668;2023-04-24T21:34:44;3.43;;;2.80;;
4023;SDS011;2026;51.002;13.668;2023-04-24T21:39:47;3.57;;;2.67;;
4023;SDS011;2026;51.002;13.668;2023-04-24T21:44:51;5.20;;;3.13;;
4023;SDS011;2026;51.002;13.668;2023-04-24T21:49:54;3.27;;;2.50;;
4023;SDS011;2026;51.002;13.668;2023-04-24T21:54:57;6.87;;;3.03;;
4023;SDS011;2026;51.002;13.668;2023-04-24T22:00:01;2.83;;;2.40;;
4023;SDS011;2026;51.002;13.668;2023-04-24T22:05:06;3.37;;;2.97;;
4023;SDS011;2026;51.002;13.668;2023-04-24T22:10:15;8.40;;;4.73;;
4023;SDS011;2026;51.002;13.668;2023-04-24T22:15:20;9.50;;;4.00;;
4023;SDS011;2026;51.002;13.668;2023-04-24T22:20:23;13.40;;;6.90;;
4023;SDS011;2026;51.002;13.668;2023-04-24T22:25:26;6.37;;;3.73;;
4023;SDS011;2026;51.002;13.668;2023-04-24T22:30:30;4.37;;;3.23;;
4023;SDS011;2026;51.002;13.668;2023-04-24T22:35:33;5.83;;;3.10;;
4023;SDS011;2026;51.002;13.668;2023-04-24T22:40:37;4.37;;;2.97;;
4023;SDS011;2026;51.002;13.668;2023-04-24T22:45:42;3.30;;;3.00;;
4023;SDS011;2026;51.002;13.668;2023-04-24T22:50:45;6.70;;;3.00;;
4023;SDS011;2026;51.002;13.668;2023-04-24T22:55:48;6.63;;;4.00;;
4023;SDS011;2026;51.002;13.668;2023-04-24T23:00:52;5.43;;;3.53;;
4023;SDS011;2026;51.002;13.668;2023-04-24T23:05:55;3.77;;;3.37;;
4023;SDS011;2026;51.002;13.668;2023-04-24T23:10:58;5.10;;;3.40;;
4023;SDS011;2026;51.002;13.668;2023-04-24T23:16:02;4.10;;;3.10;;
4023;SDS011;2026;51.002;13.668;2023-04-24T23:21:06;5.87;;;3.53;;
4023;SDS011;2026;51.002;13.668;2023-04-24T23:26:09;4.20;;;3.20;;
4023;SDS011;2026;51.002;13.668;2023-04-24T23:31:13;4.40;;;3.43;;
4023;SDS011;2026;51.002;13.668;2023-04-24T23:36:16;5.03;;;3.30;;
4023;SDS011;2026;51.002;13.668;2023-04-24T23:41:19;5.83;;;3.40;;
4023;SDS011;2026;51.002;13.668;2023-04-24T23:46:23;5.40;;;3.30;;
4023;SDS011;2026;51.002;13.668;2023-04-24T23:51:26;4.40;;;3.43;;
4023;SDS011;2026;51.002;13.668;2023-04-24T23:56:29;6.80;;;3.70;;
